鈴鹿サーキット リザルトトップへ
鈴鹿サーキット リザルト

リザルト検索:
FUN&RUN! 2-Wheels
2011 FUN&RUN!2-Wheels Full Course Special
Mini-Moto SP 決勝結果表

DATE:2011-06-26 WEATHER : Fine COURSE : Dry 国際レーシングコース 5.821km
Pos. No. Cls. Team Type 1st Rider 2nd Rider Laps Total Time Delay Best
1  4APE&XR1中川運輸NYF+kurodayaホンダ XR100Motard西澤 耕治 19 1:01'39.400107.63km/hR 3'09.001
2  9NSF1Gripホンダ NSF100下井 満 19 1:01'39.661 0.261 3'08.810
3  99NSF2ジェイソンズカスタムワークス&kurodayaホンダ NSF100井上 学的場 浩晃19 1:01'39.687 0.287 3'08.750
4  46NSF3Y2S+CLSS&SpeedHeartホンダ NSF100岩戸 亮介 19 1:01'39.719 0.319 3'08.733
5  21NSF4F.RUPINホンダ NSF100山口 孝幸桜井 功19 1:01'40.019 0.619 3'08.891
6  19NSF5Page1&Sorpassareホンダ NSF100久保 直諒岡田 真次郎19 1:01'44.890 5.490 3'07.834
7J 7APE&XR2ジェイソンズvs名古屋ゴメスホンダ APE100榊原 浩二 19 1:02'09.723 30.323 3'11.899
8  39NSF6ゼロアドバンスGripPANOLIN+R・factryHaremWorldホンダ NSF100仁木 雄介杉岡 篤19 1:02'09.774 30.374 3'11.892
9  41NSF7ああっ女神さまっ☆41☆ホンダ NSF100山内 達裕 19 1:02'45.314 1'05.914 3'13.151
10  22NSF8Sidewey &M's sportホンダ NSF100岩永 光夫 19 1:02'52.856 1'13.456 3'12.766
11  27NSF9FLEX+M.TECHNICAホンダ NSF100船田 俊希古澤 幸也19 1:02'52.919 1'13.519 3'12.395
12  71NSF10MOTO☆STAR#71&Kozzyホンダ NSF100山本 晃久 19 1:02'53.571 1'14.171 3'13.326
13  11KSR1本町ラジコン・ティ・クラフト レーシングカワサキ KSR110平野 仁志高松 宏幸19 1:02'54.840 1'15.440 3'14.086
14  67NSF11Otec鈴鹿+SHIFTUPホンダ NSF100鈴木 誠児寺田 誠19 1:03'28.766 1'49.366 3'13.814
15  17NSF12Y2S+CLSS+F-RUPIN&速心ホンダ NSF100上野 昭弘 19 1:03'29.005 1'49.605 3'14.367
16  18NSF13モトステップレーシングチームホンダ NSF100氏原 純男西村 宏樹19 1:03'49.953 2'10.553 3'14.702
17  6NSF14ピロソンズ+NISIMARU JDSホンダ NSF100竹内 洋晶西丸 直希19 1:04'28.848 2'49.448 3'18.366
18  12KSR2本町ラジコン・ティ・クラフト レーシングカワサキ KSR110安藤 勝司安福 央樹19 1:04'45.398 3'05.998 3'17.797
19  45NSF15TEAM JUBET+N-PLAN+FACTORY RUPINホンダ NSF100佐藤 浩介 18 1:01'43.497 1Lap 3'18.205
20  16NSF16P's Supply+Jr's Clubホンダ NSF100松井 俊純下農 知司18 1:01'44.112 1Lap 3'19.437
21  8NSF17バギーレーシングホンダ NSF100末川 扉 18 1:02'18.544 1Lap 3'21.363
22  5APE&XR3俺様Racing&FMRホンダ XR100Motard古川 潔宮崎 昭彦18 1:02'41.627 1Lap 3'22.293
23  13NSF18マイスターファクトリー関西ホンダ NSF100岡本 宏三小野 真誠18 1:03'28.800 1Lap 3'22.193
24  3APE&XR4BIG WONDER R.T&福徳住建友の会ホンダ XR100Motard大見 及 18 1:04'57.829 1Lap 3'29.653
25  2NSF19Team Reboot 上村鉄工ホンダ NSF100上村 祐司高見 晋吾18 1:05'05.920 1Lap 3'27.467
26  98APE&XR5MTRT あやちゃんライダース WK&SIGMAホンダ APE100D沖名 祐一郎 18 1:05'10.708 1Lap 3'30.071
27  37APE&XR6Project X Racing 鞍馬サンド「羊さんちーむ」ホンダ XR100Motard櫛田 義典 17 1:02'42.794 2Laps 3'35.848
28  86NSF20MTRT あやちゃんライダース WK&SIGMA&O-TECホンダ NSF100原田 悠平上西 英仁17 1:02'53.831 2Laps 3'13.859
29  1APE&XR7ササドック&ピュアコスモスホンダ XR100Motard小峰 周岡本 有祐17 1:04'47.563 2Laps 3'36.288
30  20APE&XR8ドカドカドッカーンホンダ XR100Motard江上 淳夫 15 1:03'23.891 4Laps 3'36.071
以上 規定周回数完走:
   10NSF ラントリップ&TEAM SEZAKIホンダ NSF100中村 和悦 13 1:03'00.639 6Laps 3'13.594
   15NSF P's Supply+Jr's Clubホンダ NSF100佐野 勝人佐野 優人0  19Laps 

"R"マークの車は、コースレコードを更新しました。従来のレコードタイムは (APE&XR) 3'09.813

レース中のベストタイムは 19 Page1&Sorpassare 3'07.834 9/19 111.56km/h

規定周回数 14

ペナルティ No.20 Mini-Moto SP 特別規則第9条〜6)(決勝レース中の尊守事項)の違反により、競技結果より2周減算した。

◎本大会のジャンプアップ賞の受賞チームは、 7 ジェイソンズvs名古屋ゴメスに決定しました。

◎規定時間内に抗議なき場合は、この結果を正式結果とする。
戻る

ページトップへ

モータースポーツ

(c) Mobilityland Corporation All Rights Reserved.
Kochira (Kochira family) is an original character of MOBILITYLAND designed by Mr. Osamu Tezuka. (c)TEZUKA PRODUCTIONS

ツインリンクもてぎ